Time;durP1;ratioP1;P1;durP2;ratioP2;P2;SDS_P1;SDS_P2;PMS_P1;PMS_P2;Temp;Humidity;BMP_temperature;BMP_pressure;BME280_temperature;BME280_humidity;BME280_pressure;Samples;Min_cycle;Max_cycle;Signal;HPM_P1;HPM_P2
2023/09/14 00:01:11;;;;;;;18.67;6.85;;;;;;;-144.30;57.53;84722.59;5069532;28;20210;-55
2023/09/14 00:03:38;;;;;;;11.40;5.32;;;;;;;-144.30;58.71;84726.56;5069190;28;20226;-49
2023/09/14 00:06:05;;;;;;;27.45;7.10;;;;;;;-144.30;59.49;84760.34;5069405;28;20579;-49
2023/09/14 00:08:32;;;;;;;13.13;6.20;;;;;;;-144.30;60.10;84718.63;5069239;28;20206;-48
2023/09/14 00:11:04;;;;;;;20.27;6.85;;;;;;;-144.30;60.64;84706.69;5069279;28;20196;-49
2023/09/14 00:13:31;;;;;;;20.02;6.45;;;;;;;-144.30;61.25;84728.56;5069071;28;20659;-56
2023/09/14 00:15:58;;;;;;;12.10;6.30;;;;;;;-144.30;61.51;84728.56;5069338;28;20554;-55
2023/09/14 00:18:27;;;;;;;15.75;6.38;;;;;;;-144.30;62.15;84690.78;5069237;28;20234;-56
2023/09/14 00:20:54;;;;;;;11.05;6.38;;;;;;;-144.30;62.43;84680.84;5068943;28;20245;-49
2023/09/14 00:23:21;;;;;;;18.70;6.05;;;;;;;-144.30;62.86;84736.50;5069416;28;20224;-50
2023/09/14 00:25:48;;;;;;;13.77;5.93;;;;;;;-144.30;63.60;84750.41;5069020;28;20206;-56
2023/09/14 00:28:17;;;;;;;10.02;6.68;;;;;;;-144.30;64.07;84748.44;5069397;28;20682;-56
2023/09/14 00:30:44;;;;;;;9.45;5.68;;;;;;;-144.30;64.80;84766.31;5068873;28;20223;-56
2023/09/14 00:33:10;;;;;;;7.90;6.07;;;;;;;-144.30;65.64;84758.38;5069285;28;20553;-55
2023/09/14 00:35:37;;;;;;;9.05;5.80;;;;;;;-144.30;66.24;84776.25;5068979;28;20581;-55
2023/09/14 00:38:04;;;;;;;10.27;6.60;;;;;;;-144.30;66.32;84768.31;5068995;28;20196;-55
2023/09/14 00:40:31;;;;;;;11.85;6.18;;;;;;;-144.30;66.50;84788.19;5068845;28;20211;-49
2023/09/14 00:42:58;;;;;;;13.35;6.72;;;;;;;-144.30;66.77;84796.13;5068645;28;20223;-49
2023/09/14 00:45:27;;;;;;;12.18;6.20;;;;;;;-144.30;66.98;84802.09;5068749;28;20203;-49
2023/09/14 00:47:57;;;;;;;12.35;6.05;;;;;;;-144.30;66.88;84758.38;5068908;28;20192;-48
2023/09/14 00:50:24;;;;;;;16.40;6.05;;;;;;;-144.30;66.33;84722.59;5069186;28;20200;-47
2023/09/14 00:52:55;;;;;;;14.48;6.40;;;;;;;-144.30;66.22;84800.09;5069009;28;20211;-49
2023/09/14 00:55:24;;;;;;;13.77;5.90;;;;;;;-144.30;65.98;84784.19;5069224;28;20203;-48
2023/09/14 00:57:52;;;;;;;10.13;6.22;;;;;;;-144.30;65.89;84796.13;5068727;28;20206;-49
2023/09/14 01:00:19;;;;;;;14.15;6.13;;;;;;;-144.30;65.54;84774.25;5068763;28;20202;-48
2023/09/14 01:02:52;;;;;;;12.48;7.05;;;;;;;-144.30;65.08;84758.38;5068716;28;20604;-48
2023/09/14 01:05:20;;;;;;;10.43;6.05;;;;;;;-144.30;65.03;84784.19;5072237;28;20253;-49
2023/09/14 01:07:47;;;;;;;9.25;6.50;;;;;;;-144.30;65.09;84774.25;5071981;28;20210;-49
2023/09/14 01:10:15;;;;;;;10.70;6.47;;;;;;;-144.30;65.16;84792.16;5072489;28;20282;-50
2023/09/14 01:12:42;;;;;;;12.00;6.00;;;;;;;-144.30;65.21;84760.34;5072167;28;20549;-50
2023/09/14 01:15:16;;;;;;;13.57;6.10;;;;;;;-144.30;65.28;84812.03;5072449;28;20196;-49
2023/09/14 01:17:59;;;;;;;11.00;5.88;;;;;;;-144.30;65.03;84812.03;5071847;28;20236;-48
2023/09/14 01:20:43;;;;;;;10.65;5.25;;;;;;;-144.30;64.98;84772.28;5072390;28;20192;-54
2023/09/14 01:23:25;;;;;;;13.27;5.72;;;;;;;-144.30;65.33;84766.31;5072069;28;20491;-55
2023/09/14 01:25:53;;;;;;;9.88;5.88;;;;;;;-144.30;65.29;84788.19;5072265;28;20238;-55
2023/09/14 01:28:20;;;;;;;9.38;5.38;;;;;;;-144.30;65.73;84819.97;5072038;28;20295;-54
2023/09/14 01:30:47;;;;;;;8.23;5.72;;;;;;;-144.30;65.64;84784.19;5071746;28;20446;-54
2023/09/14 01:33:15;;;;;;;11.43;5.93;;;;;;;-144.30;65.81;84829.91;5071962;28;20206;-47
2023/09/14 01:35:50;;;;;;;11.68;5.85;;;;;;;-144.30;65.89;84816.00;5071704;28;20528;-49
2023/09/14 01:38:18;;;;;;;8.48;5.72;;;;;;;-144.30;65.86;84841.84;5072035;28;20568;-54
2023/09/14 01:40:47;;;;;;;6.35;5.72;;;;;;;-144.30;65.87;84816.00;5071592;28;20196;-55
2023/09/14 01:43:17;;;;;;;8.85;5.30;;;;;;;-144.30;66.30;84812.03;5071600;28;20224;-56
2023/09/14 01:45:44;;;;;;;9.82;5.57;;;;;;;-144.30;66.13;84837.88;5071462;28;20199;-56
2023/09/14 01:48:15;;;;;;;6.95;5.38;;;;;;;-144.30;65.98;84819.97;5071620;28;20203;-47
2023/09/14 01:50:42;;;;;;;7.05;6.35;;;;;;;-144.30;66.18;84756.38;5071393;28;20273;-49
2023/09/14 01:53:09;;;;;;;9.57;5.60;;;;;;;-144.30;66.20;84835.88;5071784;28;20652;-49
2023/09/14 01:55:36;;;;;;;10.85;6.28;;;;;;;-144.30;66.41;84798.13;5071370;28;20202;-49
2023/09/14 01:58:03;;;;;;;8.07;6.18;;;;;;;-144.30;67.09;84849.78;5071437;28;20218;-48
2023/09/14 02:00:32;;;;;;;8.75;5.80;;;;;;;-144.30;67.03;84879.59;5071644;28;20207;-49
2023/09/14 02:02:59;;;;;;;6.78;6.18;;;;;;;-144.30;67.57;84829.91;5071438;28;20704;-49
2023/09/14 02:05:26;;;;;;;8.80;6.70;;;;;;;-144.30;67.10;84837.88;5071433;28;20196;-49
2023/09/14 02:07:52;;;;;;;7.75;6.95;;;;;;;-144.30;66.92;84863.72;5071010;28;20196;-49
2023/09/14 02:10:21;;;;;;;6.15;5.60;;;;;;;-144.30;66.76;84831.91;5071209;28;20192;-48
2023/09/14 02:12:49;;;;;;;7.57;6.78;;;;;;;-144.30;66.43;84800.09;5070978;28;20196;-48
2023/09/14 02:15:17;;;;;;;12.65;6.60;;;;;;;-144.30;66.46;84827.94;5070456;28;20196;-49
2023/09/14 02:17:45;;;;;;;7.47;5.85;;;;;;;-144.30;66.60;84788.19;5070694;28;20258;-49
2023/09/14 02:20:12;;;;;;;6.50;5.78;;;;;;;-144.30;66.40;84819.97;5070993;28;20192;-55
2023/09/14 02:22:39;;;;;;;9.07;6.25;;;;;;;-144.30;66.05;84835.88;5070707;28;20234;-48
2023/09/14 02:25:07;;;;;;;6.97;6.10;;;;;;;-144.30;66.29;84825.94;5070806;28;20282;-50
2023/09/14 02:27:35;;;;;;;11.52;7.22;;;;;;;-144.30;67.12;84847.81;5070946;28;20202;-49
2023/09/14 02:30:03;;;;;;;7.15;6.55;;;;;;;-144.30;67.48;85151.94;5071023;28;20204;-55
2023/09/14 02:32:30;;;;;;;7.05;6.35;;;;;;;-144.30;67.91;84891.53;5071306;28;20196;-48
2023/09/14 02:34:58;;;;;;;8.93;6.35;;;;;;;-144.30;67.84;84863.72;5070681;28;20291;-48
2023/09/14 02:37:25;;;;;;;7.38;6.78;;;;;;;-144.30;68.35;84917.38;5070642;28;20611;-49
2023/09/14 02:39:52;;;;;;;7.00;6.13;;;;;;;-144.30;68.98;84951.16;5070534;28;20200;-48
2023/09/14 02:42:19;;;;;;;7.50;6.70;;;;;;;-144.30;69.56;84949.19;5070726;28;20196;-56
2023/09/14 02:44:46;;;;;;;7.65;6.50;;;;;;;-144.30;69.83;84935.25;5070522;28;20594;-56
2023/09/14 02:47:13;;;;;;;10.32;6.00;;;;;;;-144.30;70.41;84927.31;5070484;28;20207;-49
2023/09/14 02:49:40;;;;;;;13.02;6.88;;;;;;;-144.30;70.31;84963.09;5070252;28;20427;-50
2023/09/14 02:52:09;;;;;;;19.63;6.57;;;;;;;-144.30;69.80;84899.47;5070616;28;20660;-49
2023/09/14 02:54:35;;;;;;;7.60;6.47;;;;;;;-144.30;69.41;84919.34;5070378;28;20196;-48
2023/09/14 02:57:02;;;;;;;9.65;7.60;;;;;;;-144.30;69.53;84895.50;5070050;28;20294;-47
2023/09/14 02:59:29;;;;;;;11.07;7.20;;;;;;;-144.30;69.61;84931.28;5070225;28;20261;-48
2023/09/14 03:01:57;;;;;;;10.20;7.80;;;;;;;-144.30;69.68;84903.47;5070050;28;20583;-48
2023/09/14 03:04:23;;;;;;;18.58;7.82;;;;;;;-144.30;69.68;84905.44;5070128;28;20224;-49
2023/09/14 03:06:50;;;;;;;10.82;7.60;;;;;;;-144.30;69.91;84929.28;5070363;28;20638;-48
2023/09/14 03:09:19;;;;;;;7.00;6.40;;;;;;;-144.30;69.61;84931.28;5070179;28;20269;-49
2023/09/14 03:11:46;;;;;;;10.98;7.78;;;;;;;-144.30;69.59;84927.31;5069945;28;20199;-56
2023/09/14 03:14:12;;;;;;;9.70;7.78;;;;;;;-144.30;69.51;84907.44;5070088;28;20202;-55
2023/09/14 03:16:39;;;;;;;15.55;7.22;;;;;;;-144.30;69.71;84895.50;5069883;28;20682;-49
2023/09/14 03:19:06;;;;;;;7.32;6.30;;;;;;;-144.30;70.10;84899.47;5069644;28;20238;-49
2023/09/14 03:21:33;;;;;;;10.65;6.75;;;;;;;-144.30;70.69;84915.38;5069731;28;20517;-49
2023/09/14 03:24:00;;;;;;;9.57;6.82;;;;;;;-144.30;71.31;84967.06;5069767;28;20215;-49
2023/09/14 03:26:28;;;;;;;17.20;7.45;;;;;;;-144.30;71.67;84979.00;5069577;28;20200;-48
2023/09/14 03:28:55;;;;;;;10.10;6.93;;;;;;;-144.30;71.88;84965.06;5069903;28;20587;-48
2023/09/14 03:31:23;;;;;;;9.18;6.90;;;;;;;-144.30;72.16;84982.97;5069433;28;20652;-50
2023/09/14 03:33:51;;;;;;;11.30;7.97;;;;;;;-144.30;71.94;84963.09;5069358;28;20287;-49
2023/09/14 03:36:19;;;;;;;9.52;6.97;;;;;;;-144.30;71.54;84859.72;5069734;28;20196;-55
2023/09/14 03:38:46;;;;;;;10.48;7.75;;;;;;;-144.30;70.59;84941.22;5069549;28;20250;-55
2023/09/14 03:41:13;;;;;;;11.40;8.00;;;;;;;-144.30;70.15;84955.13;5069732;28;20637;-55
2023/09/14 03:43:42;;;;;;;9.05;7.63;;;;;;;-144.30;69.74;84909.41;5069623;28;20633;-55
2023/09/14 03:46:09;;;;;;;8.48;7.45;;;;;;;-144.30;69.24;84657.00;5069394;28;20222;-55
2023/09/14 03:48:36;;;;;;;15.55;8.02;;;;;;;-144.30;69.41;85308.97;5069413;28;20195;-56
2023/09/14 03:51:03;;;;;;;12.07;7.63;;;;;;;-144.30;69.63;84947.19;5069745;28;20218;-55
2023/09/14 03:53:30;;;;;;;11.00;8.40;;;;;;;-144.30;69.69;84967.06;5069808;28;20235;-50
2023/09/14 03:55:59;;;;;;;8.32;7.50;;;;;;;-144.30;70.02;84959.13;5069266;28;20195;-49
2023/09/14 03:58:27;;;;;;;17.85;8.73;;;;;;;-144.30;70.50;84941.22;5063831;28;20560;-49
2023/09/14 04:00:55;;;;;;;15.43;8.85;;;;;;;-144.30;70.83;84975.00;5068871;28;20233;-49
2023/09/14 04:03:22;;;;;;;16.98;8.52;;;;;;;-144.30;70.87;85004.84;5068850;28;20223;-49
2023/09/14 04:05:49;;;;;;;17.35;8.85;;;;;;;-144.30;70.78;84980.97;5069223;28;20726;-48
2023/09/14 04:08:17;;;;;;;13.07;8.02;;;;;;;-144.30;70.50;84927.31;5073566;28;20210;-54
2023/09/14 04:10:44;;;;;;;15.77;8.77;;;;;;;-144.30;70.77;84990.91;5067381;28;20667;-55
2023/09/14 04:13:30;;;;;;;19.70;8.93;;;;;;;-144.30;72.64;84982.97;5068253;28;20210;-54
2023/09/14 04:16:00;;;;;;;14.32;8.85;;;;;;;-144.30;73.17;84984.97;5068377;28;20199;-54
2023/09/14 04:18:27;;;;;;;19.75;9.00;;;;;;;-144.30;72.93;84957.13;5068526;28;20224;-48
2023/09/14 04:20:55;;;;;;;17.45;8.82;;;;;;;-144.30;73.03;84977.00;5068685;28;20200;-50
2023/09/14 04:23:22;;;;;;;28.40;10.70;;;;;;;-144.30;72.66;84933.28;5068993;28;20219;-49
2023/09/14 04:25:50;;;;;;;34.25;11.25;;;;;;;-144.30;72.19;84955.13;5068657;28;20203;-49
2023/09/14 04:28:18;;;;;;;29.13;9.05;;;;;;;-144.30;72.01;84951.16;5068677;28;20295;-48
2023/09/14 04:30:47;;;;;;;20.85;9.70;;;;;;;-144.30;71.04;84919.34;5067816;28;20277;-49
2023/09/14 04:33:17;;;;;;;27.67;10.88;;;;;;;-144.30;70.15;84939.25;5068702;28;20199;-54
2023/09/14 04:35:44;;;;;;;16.92;9.95;;;;;;;-144.30;69.45;84923.34;5068018;28;20287;-55
2023/09/14 04:38:11;;;;;;;22.98;10.43;;;;;;;-144.30;69.10;84865.69;5069412;28;20202;-54
2023/09/14 04:40:39;;;;;;;12.88;10.27;;;;;;;-144.30;68.39;84887.56;5073266;28;20192;-54
2023/09/14 04:43:06;;;;;;;20.45;10.38;;;;;;;-144.30;68.05;84841.84;5072704;28;20220;-54
2023/09/14 04:45:33;;;;;;;19.27;10.82;;;;;;;-144.30;67.53;84855.75;5072811;28;20208;-48
2023/09/14 04:48:01;;;;;;;18.58;10.65;;;;;;;-144.30;67.55;84841.84;5072277;28;20192;-55
2023/09/14 04:50:29;;;;;;;16.10;10.50;;;;;;;-144.30;67.34;84835.88;5072704;28;20583;-56
2023/09/14 04:52:56;;;;;;;25.20;11.00;;;;;;;-144.30;66.79;84829.91;5072734;28;20204;-55
2023/09/14 04:55:24;;;;;;;17.35;10.35;;;;;;;-144.30;66.56;84814.00;5072934;28;20191;-55
2023/09/14 04:57:51;;;;;;;25.58;10.45;;;;;;;-144.30;66.56;84839.84;5072537;28;20196;-48
2023/09/14 05:00:18;;;;;;;26.10;11.57;;;;;;;-144.30;66.54;84792.16;5072596;28;20682;-48
2023/09/14 05:02:45;;;;;;;21.55;10.50;;;;;;;-144.30;66.73;84806.06;5072328;28;20200;-50
2023/09/14 05:05:11;;;;;;;15.00;9.63;;;;;;;-144.30;66.47;84776.25;5072268;28;20237;-50
2023/09/14 05:07:41;;;;;;;18.92;9.85;;;;;;;-144.30;64.38;84688.81;5072782;28;20326;-50
2023/09/14 05:10:09;;;;;;;18.40;9.68;;;;;;;-144.30;60.67;84573.53;5072472;28;20618;-49
2023/09/14 05:12:36;;;;;;;13.05;9.20;;;;;;;-144.30;55.09;84333.06;5072210;28;20200;-56
2023/09/14 05:15:03;;;;;;;19.33;9.43;;;;;;;-144.30;50.61;84124.38;5072164;28;20196;-56
2023/09/14 05:17:30;;;;;;;19.42;9.20;;;;;;;-144.30;47.06;83897.84;5072034;28;20231;-56
2023/09/14 05:19:57;;;;;;;19.05;8.88;;;;;;;-144.30;44.25;83758.75;5072401;28;20204;-58
2023/09/14 05:22:25;;;;;;;15.52;8.77;;;;;;;-144.30;42.35;83615.69;5072271;28;20196;-57
2023/09/14 05:24:54;;;;;;;16.05;9.38;;;;;;;-144.30;40.28;83462.72;5071857;28;20273;-57
2023/09/14 05:27:21;;;;;;;13.20;9.73;;;;;;;-144.30;39.01;83353.44;5071884;28;20668;-51
2023/09/14 05:29:48;;;;;;;15.38;9.40;;;;;;;-144.30;38.61;83337.53;5071822;28;20202;-57
2023/09/14 05:32:15;;;;;;;16.27;9.32;;;;;;;-144.30;37.84;83204.44;5071540;28;20191;-51
2023/09/14 05:34:42;;;;;;;20.08;10.13;;;;;;;-144.30;36.72;83115.03;5071409;28;20199;-50
2023/09/14 05:37:10;;;;;;;20.75;9.70;;;;;;;-144.30;36.76;83087.22;5071345;28;20196;-57
2023/09/14 05:39:37;;;;;;;20.17;9.55;;;;;;;-144.30;36.24;82991.88;5071365;28;20633;-51
2023/09/14 05:42:06;;;;;;;15.73;10.20;;;;;;;-144.30;35.86;83011.72;5071140;28;20589;-51
2023/09/14 05:44:32;;;;;;;18.92;9.48;;;;;;;-144.30;35.69;83007.75;5071752;28;20220;-50
2023/09/14 05:46:59;;;;;;;11.23;8.82;;;;;;;-144.30;35.38;82968.03;5071573;28;20200;-50
2023/09/14 05:49:26;;;;;;;22.48;9.18;;;;;;;-144.30;35.39;82962.06;5071715;28;20200;-51
2023/09/14 05:51:53;;;;;;;14.30;8.85;;;;;;;-144.30;34.87;82868.69;5071686;28;20229;-57
2023/09/14 05:54:20;;;;;;;20.33;8.77;;;;;;;-144.30;34.22;82779.31;5071581;28;20215;-56
2023/09/14 05:56:47;;;;;;;18.67;8.68;;;;;;;-144.30;33.42;82693.88;5071385;28;20273;-57
2023/09/14 05:59:15;;;;;;;24.63;9.27;;;;;;;-144.30;32.78;82552.88;5071964;28;20556;-60
2023/09/14 06:01:42;;;;;;;25.85;9.30;;;;;;;-144.30;32.66;82513.13;5071594;28;20195;-62
2023/09/14 06:04:09;;;;;;;21.83;8.95;;;;;;;-144.30;32.15;82403.91;5071395;28;20311;-59
2023/09/14 06:06:36;;;;;;;15.50;8.98;;;;;;;-144.30;32.07;82467.44;5071495;28;20675;-53
2023/09/14 06:09:04;;;;;;;18.15;9.27;;;;;;;-144.30;31.71;82312.53;5071045;28;20204;-59
2023/09/14 06:11:31;;;;;;;15.98;9.38;;;;;;;-144.30;32.22;82467.44;5071208;28;20196;-60
2023/09/14 06:13:58;;;;;;;20.00;8.73;;;;;;;-144.30;31.70;82304.59;5070926;28;20295;-61
2023/09/14 06:16:26;;;;;;;13.63;8.38;;;;;;;-144.30;31.20;82264.88;5071224;28;20196;-59
2023/09/14 06:18:53;;;;;;;19.67;9.43;;;;;;;-144.30;30.69;82169.53;5070502;28;20238;-60
2023/09/14 06:21:20;;;;;;;20.98;9.25;;;;;;;-144.30;31.11;82246.97;5071054;28;20615;-60
2023/09/14 06:23:47;;;;;;;17.70;8.75;;;;;;;-144.30;30.98;82107.97;5070898;28;20219;-60
2023/09/14 06:26:14;;;;;;;15.05;9.13;;;;;;;-144.30;30.91;82225.13;5071544;28;20202;-60
2023/09/14 06:28:41;;;;;;;23.23;9.63;;;;;;;-144.30;31.79;82376.09;5070821;28;20192;-52
2023/09/14 06:31:08;;;;;;;20.75;8.77;;;;;;;-144.30;32.14;82393.97;5070975;28;20196;-53
2023/09/14 06:33:36;;;;;;;17.75;9.57;;;;;;;-144.30;31.86;82336.38;5070424;28;20198;-60
2023/09/14 06:36:03;;;;;;;10.00;9.00;;;;;;;-144.30;31.15;82256.91;5070428;28;20200;-60
2023/09/14 06:38:30;;;;;;;13.35;8.75;;;;;;;-144.30;30.68;82149.66;5070754;28;20203;-53
2023/09/14 06:40:57;;;;;;;21.17;10.77;;;;;;;-144.30;30.58;82115.91;5070439;28;20196;-53
2023/09/14 06:43:24;;;;;;;13.52;9.85;;;;;;;-144.30;30.00;81955.03;5069557;28;20687;-53
2023/09/14 06:45:51;;;;;;;15.27;9.93;;;;;;;-144.30;30.05;82098.03;5070237;28;20199;-59
2023/09/14 06:48:18;;;;;;;17.90;9.63;;;;;;;-144.30;30.19;81962.97;5070557;28;20235;-60
2023/09/14 06:50:46;;;;;;;20.98;9.63;;;;;;;-144.30;29.89;81998.72;5069903;28;20188;-60
2023/09/14 06:53:13;;;;;;;11.52;9.95;;;;;;;-144.30;29.53;81897.44;5069963;28;20599;-60
2023/09/14 06:55:40;;;;;;;15.88;8.85;;;;;;;-144.30;29.08;81837.88;5069520;28;20203;-59
2023/09/14 06:58:07;;;;;;;14.55;9.75;;;;;;;-144.30;29.14;81855.75;5069660;28;20210;-60
2023/09/14 07:00:35;;;;;;;20.55;10.55;;;;;;;-144.30;29.31;81820.00;5069321;28;20537;-60
2023/09/14 07:03:03;;;;;;;16.88;9.90;;;;;;;-144.30;29.39;81875.59;5069731;28;20635;-60
2023/09/14 07:05:30;;;;;;;16.95;10.43;;;;;;;-144.30;29.41;81929.22;5070077;28;20220;-52
2023/09/14 07:07:59;;;;;;;19.90;10.02;;;;;;;-144.30;28.71;81724.69;5069884;28;20199;-52
2023/09/14 07:10:26;;;;;;;17.70;9.95;;;;;;;-144.30;28.26;81641.28;5070059;28;20195;-59
2023/09/14 07:12:53;;;;;;;14.45;9.27;;;;;;;-144.30;28.44;81581.69;5069778;28;20192;-60
2023/09/14 07:15:20;;;;;;;14.18;9.18;;;;;;;-144.30;28.08;81502.28;5070183;28;20194;-60
2023/09/14 07:17:47;;;;;;;18.90;9.82;;;;;;;-144.30;28.16;81597.59;5069741;28;20231;-61
2023/09/14 07:20:13;;;;;;;21.73;9.00;;;;;;;-144.30;27.84;81553.91;5069997;28;20206;-52
2023/09/14 07:22:41;;;;;;;16.52;9.57;;;;;;;-144.30;27.76;81434.75;5069694;28;20579;-52
2023/09/14 07:25:09;;;;;;;16.02;9.90;;;;;;;-144.30;27.77;81540.00;5069494;28;20219;-52
2023/09/14 07:27:37;;;;;;;19.85;10.65;;;;;;;-144.30;28.05;81637.31;5069965;28;20577;-53
2023/09/14 07:30:04;;;;;;;23.17;9.55;;;;;;;-144.30;28.43;81655.19;5069428;28;20204;-53
2023/09/14 07:32:31;;;;;;;24.92;11.05;;;;;;;-144.30;29.02;81931.22;5069558;28;20207;-52
2023/09/14 07:35:00;;;;;;;24.50;10.55;;;;;;;-144.30;28.95;81885.53;5069522;28;20192;-52
2023/09/14 07:37:27;;;;;;;23.75;11.95;;;;;;;-144.30;29.07;81945.09;5069475;28;20192;-54
2023/09/14 07:39:54;;;;;;;25.95;9.88;;;;;;;-144.30;29.27;81955.03;5069406;28;20195;-53
2023/09/14 07:42:22;;;;;;;19.88;11.00;;;;;;;-144.30;28.78;81855.75;5069665;28;20218;-52
2023/09/14 07:44:49;;;;;;;15.85;10.75;;;;;;;-144.30;29.17;82066.25;5069400;28;20255;-53
2023/09/14 07:47:16;;;;;;;17.85;11.55;;;;;;;-144.30;28.95;81986.81;5069693;28;20196;-60
2023/09/14 07:49:45;;;;;;;18.33;11.48;;;;;;;-144.30;28.77;81859.72;5069303;28;20206;-60
2023/09/14 07:52:12;;;;;;;16.65;9.48;;;;;;;-144.30;27.72;81585.66;5069580;28;20207;-59
2023/09/14 07:54:38;;;;;;;16.77;9.70;;;;;;;-144.30;26.66;81254.06;5069681;28;20690;-60
2023/09/14 07:57:05;;;;;;;14.63;8.52;;;;;;;-144.30;25.92;80930.44;5069567;28;20621;-60
2023/09/14 07:59:34;;;;;;;12.63;8.90;;;;;;;-144.30;25.88;80880.81;5069345;28;20237;-60
2023/09/14 08:02:00;;;;;;;16.02;8.38;;;;;;;-144.30;26.39;81244.13;5068723;28;20195;-59
2023/09/14 08:04:27;;;;;;;13.18;9.45;;;;;;;-144.30;26.58;81236.19;5068971;28;20219;-60
2023/09/14 08:06:54;;;;;;;18.00;8.95;;;;;;;-144.30;26.25;81160.75;5068995;28;20586;-60
2023/09/14 08:09:22;;;;;;;15.63;9.23;;;;;;;-144.30;26.29;81061.47;5069459;28;20200;-61
2023/09/14 08:11:49;;;;;;;11.50;8.10;;;;;;;-144.30;26.74;81212.38;5069097;28;20598;-61
2023/09/14 08:14:16;;;;;;;17.42;8.68;;;;;;;-144.30;26.90;81269.94;5072073;28;20191;-52
2023/09/14 08:16:44;;;;;;;14.52;9.55;;;;;;;-144.30;27.20;81403.00;5073110;28;20291;-51
2023/09/14 08:19:11;;;;;;;14.73;9.27;;;;;;;-144.30;28.39;81927.22;5072949;28;20699;-52
2023/09/14 08:21:38;;;;;;;17.73;8.80;;;;;;;-144.30;29.87;82304.59;5073123;28;20200;-52
2023/09/14 08:24:06;;;;;;;14.07;8.85;;;;;;;-144.30;30.50;82499.22;5072949;28;20249;-52
2023/09/14 08:26:32;;;;;;;16.25;8.30;;;;;;;-144.30;31.56;82622.38;5073069;28;20195;-60
2023/09/14 08:28:59;;;;;;;17.80;9.15;;;;;;;-144.30;32.24;82803.16;5072802;28;20203;-60
2023/09/14 08:31:27;;;;;;;19.10;8.93;;;;;;;-144.30;33.23;82948.16;5073180;28;20199;-51
2023/09/14 08:33:55;;;;;;;16.02;9.32;;;;;;;-144.30;34.12;83146.81;5072912;28;20211;-52
2023/09/14 08:36:22;;;;;;;20.85;8.35;;;;;;;-144.30;33.92;83077.28;5073298;28;20188;-51
2023/09/14 08:38:49;;;;;;;13.15;8.40;;;;;;;-144.30;33.97;83091.19;5072761;28;20672;-60
2023/09/14 08:41:26;;;;;;;14.85;8.95;;;;;;;-144.30;34.24;83081.25;5073132;28;20690;-52
2023/09/14 08:43:54;;;;;;;13.15;7.18;;;;;;;-144.30;34.04;83083.25;5072705;28;20192;-52
2023/09/14 08:46:22;;;;;;;16.77;8.70;;;;;;;-144.30;34.13;83134.91;5072746;28;21009;-52
2023/09/14 08:48:51;;;;;;;21.65;10.63;;;;;;;-144.30;34.64;83162.72;5072506;28;20202;-60
2023/09/14 08:51:21;;;;;;;19.48;8.65;;;;;;;-144.30;34.74;83170.66;5072891;28;20238;-60
2023/09/14 08:53:50;;;;;;;12.85;8.48;;;;;;;-144.30;34.74;83136.88;5072416;28;20196;-60
2023/09/14 08:56:17;;;;;;;25.77;7.90;;;;;;;-144.30;35.60;83236.22;5072698;28;20199;-51
2023/09/14 08:58:45;;;;;;;15.75;9.50;;;;;;;-144.30;36.42;83309.72;5072439;28;20591;-51
2023/09/14 09:01:14;;;;;;;11.88;8.55;;;;;;;-144.30;36.24;83367.34;5072526;28;20684;-52
2023/09/14 09:03:41;;;;;;;11.73;8.02;;;;;;;-144.30;36.69;83399.13;5072357;28;20196;-51
2023/09/14 09:06:09;;;;;;;17.15;7.93;;;;;;;-144.30;36.61;83347.47;5072223;28;20246;-51
2023/09/14 09:08:37;;;;;;;11.80;8.90;;;;;;;-144.30;37.16;83377.28;5072347;28;20601;-52
2023/09/14 09:11:05;;;;;;;18.67;9.55;;;;;;;-144.30;37.23;83345.50;5071915;28;20241;-51
2023/09/14 09:13:36;;;;;;;16.55;8.70;;;;;;;-144.30;37.11;83285.88;5072429;28;20192;-51
2023/09/14 09:16:04;;;;;;;19.33;8.40;;;;;;;-144.30;36.56;83341.50;5072225;28;20206;-52
2023/09/14 09:18:31;;;;;;;21.27;9.73;;;;;;;-144.30;37.04;83353.44;5071985;28;20621;-53
2023/09/14 09:21:05;;;;;;;14.05;7.88;;;;;;;-144.30;36.96;83307.75;5072032;28;20589;-60
2023/09/14 09:23:33;;;;;;;20.25;7.07;;;;;;;-144.30;35.83;83176.63;5071694;28;20254;-60
2023/09/14 09:26:02;;;;;;;12.25;5.82;;;;;;;-144.30;34.98;83075.31;5071899;28;20242;-60
2023/09/14 09:28:30;;;;;;;13.73;6.88;;;;;;;-144.30;34.18;83079.28;5072772;28;20202;-52
2023/09/14 09:30:57;;;;;;;11.85;7.35;;;;;;;-144.30;34.51;83071.31;5072510;28;20204;-53
2023/09/14 09:33:34;;;;;;;19.13;6.72;;;;;;;-144.30;34.38;82999.81;5072106;28;20199;-60
2023/09/14 09:36:02;;;;;;;9.60;7.15;;;;;;;-144.30;34.03;82987.88;5071879;28;20202;-60
2023/09/14 09:38:37;;;;;;;20.15;6.85;;;;;;;-144.30;34.00;82995.84;5072215;28;20192;-60
2023/09/14 09:41:10;;;;;;;13.00;6.55;;;;;;;-144.30;33.79;82902.47;5071726;28;20198;-60
2023/09/14 09:43:37;;;;;;;12.30;8.50;;;;;;;-144.30;34.25;82995.84;5071845;28;20241;-52
2023/09/14 09:46:04;;;;;;;20.70;8.25;;;;;;;-144.30;34.15;83023.66;5071604;28;20726;-51
2023/09/14 09:48:32;;;;;;;16.27;6.78;;;;;;;-144.30;34.74;83111.06;5071897;28;20191;-51
2023/09/14 09:50:59;;;;;;;12.55;7.15;;;;;;;-144.30;35.18;83099.13;5071587;28;20682;-52
2023/09/14 09:53:26;;;;;;;14.63;7.07;;;;;;;-144.30;34.75;83130.94;5072057;28;20640;-59
2023/09/14 09:55:53;;;;;;;14.25;5.80;;;;;;;-144.30;34.88;83146.81;5071377;28;20196;-52
2023/09/14 09:58:24;;;;;;;15.30;7.22;;;;;;;-144.30;35.19;83154.75;5071705;28;20204;-51
2023/09/14 10:00:58;;;;;;;14.38;6.28;;;;;;;-144.30;35.68;83210.38;5071203;28;20230;-52
2023/09/14 10:03:25;;;;;;;15.73;7.15;;;;;;;-144.30;35.61;83210.38;5071268;28;20200;-51
2023/09/14 10:05:52;;;;;;;16.88;6.70;;;;;;;-144.30;35.21;83194.50;5071452;28;20215;-51
2023/09/14 10:08:21;;;;;;;15.02;7.20;;;;;;;-144.30;34.96;83130.94;5071433;28;20196;-59
2023/09/14 10:10:51;;;;;;;13.07;6.35;;;;;;;-144.30;35.89;83166.69;5071419;28;20196;-51
2023/09/14 10:13:24;;;;;;;9.85;6.55;;;;;;;-144.30;35.62;83230.25;5071458;28;20251;-59
2023/09/14 10:15:53;;;;;;;17.42;6.85;;;;;;;-144.30;36.49;83303.75;5070906;28;20195;-60
2023/09/14 10:18:21;;;;;;;15.95;6.85;;;;;;;-144.30;36.18;83289.84;5070768;28;20235;-60
2023/09/14 10:20:50;;;;;;;17.35;7.95;;;;;;;-144.30;36.19;83313.69;5071124;28;20187;-52
2023/09/14 10:23:19;;;;;;;18.55;7.32;;;;;;;-144.30;36.17;83293.84;5070898;28;20200;-50
2023/09/14 10:25:47;;;;;;;11.65;7.15;;;;;;;-144.30;36.72;83337.53;5070825;28;20320;-60
2023/09/14 10:28:16;;;;;;;11.90;6.57;;;;;;;-144.30;36.56;83214.38;5070553;28;20227;-52
2023/09/14 10:30:45;;;;;;;18.42;8.15;;;;;;;-144.30;37.12;83347.47;5071038;28;20207;-60
2023/09/14 10:33:14;;;;;;;13.85;6.57;;;;;;;-144.30;36.84;83333.56;5070848;28;20664;-60
2023/09/14 10:35:41;;;;;;;15.05;8.48;;;;;;;-144.30;36.31;83359.41;5069899;28;20199;-60
2023/09/14 10:38:08;;;;;;;13.30;7.15;;;;;;;-144.30;36.63;83317.66;5070724;28;20621;-60
2023/09/14 10:40:36;;;;;;;18.30;7.03;;;;;;;-144.30;36.06;83264.03;5071015;28;20196;-60
2023/09/14 10:43:04;;;;;;;11.65;6.88;;;;;;;-144.30;35.66;83279.94;5070663;28;20291;-51
2023/09/14 10:45:35;;;;;;;67.38;37.38;;;;;;;-144.30;35.85;83246.16;5070619;28;20255;-51
2023/09/14 10:48:07;;;;;;;14.40;7.22;;;;;;;-144.30;35.44;83214.38;5070473;28;20203;-60
2023/09/14 10:50:34;;;;;;;21.27;13.02;;;;;;;-144.30;35.49;83190.53;5070548;28;20207;-60
2023/09/14 10:53:02;;;;;;;14.00;8.02;;;;;;;-144.30;34.85;83178.59;5070302;28;20198;-61
2023/09/14 10:55:31;;;;;;;14.02;7.32;;;;;;;-144.30;34.83;83182.56;5070376;28;20253;-61
2023/09/14 10:57:58;;;;;;;10.77;7.68;;;;;;;-144.30;34.86;83188.53;5069547;28;20238;-59
2023/09/14 11:00:36;;;;;;;19.35;6.05;;;;;;;-144.30;35.70;83202.44;5067638;28;20231;-59
2023/09/14 11:03:04;;;;;;;12.02;8.23;;;;;;;-144.30;34.74;83192.50;5069992;28;20692;-59
2023/09/14 11:05:42;;;;;;;9.48;6.25;;;;;;;-144.30;34.48;83186.56;5069583;28;20219;-52
2023/09/14 11:08:09;;;;;;;14.55;6.30;;;;;;;-144.30;34.40;83150.78;5068823;28;20198;-52
2023/09/14 11:10:38;;;;;;;11.35;5.90;;;;;;;-144.30;34.33;83138.88;5069191;28;20279;-52
2023/09/14 11:13:28;;;;;;;16.17;11.30;;;;;;;-144.30;34.38;83113.03;5069607;28;20200;-52